Terminal Aerodrome Forecast
Issued by NWS

Home | Current Version | Previous Version | Text Only | Print | Product List | Glossary On
Versions: 1 2 3 4 5 6 7 8 9 10 11 12 13 14 15 16 17 18
000
FTUS46 KSGX 291410 AAA
TAFSNA
TAF AMD
KSNA 291410Z 2914/3012 VRB04KT 6SM BR OVC010
     FM291800 22008KT P6SM SCT010
     FM300200 21004KT P6SM SCT009
     FM300700 VRB03KT P6SM OVC008=

USA.gov is the U.S. government's official web portal to all federal, state and local government web resources and services.